createdAt,value
2022-10-24T00:00:15.528Z,2.97
2022-10-24T00:02:42.616Z,3.15
2022-10-24T00:05:11.840Z,2.05
2022-10-24T00:07:38.420Z,2.47
2022-10-24T00:10:05.778Z,2.38
2022-10-24T00:15:23.197Z,2.53
2022-10-24T00:17:49.799Z,2.58
2022-10-24T00:20:16.373Z,3.80
2022-10-24T00:22:43.265Z,2.78
2022-10-24T00:25:10.086Z,2.65
2022-10-24T00:27:36.699Z,3.80
2022-10-24T00:30:05.135Z,2.47
2022-10-24T00:32:32.062Z,2.00
2022-10-24T00:34:58.705Z,2.75
2022-10-24T00:37:25.305Z,2.95
2022-10-24T00:39:51.915Z,2.28
2022-10-24T00:42:18.507Z,2.67
2022-10-24T00:44:47.141Z,3.33
2022-10-24T00:47:23.274Z,2.97
2022-10-24T00:50:09.859Z,4.32
2022-10-24T00:52:42.949Z,3.90
2022-10-24T00:55:11.670Z,3.20
2022-10-24T00:57:46.203Z,2.33
2022-10-24T01:00:20.410Z,2.63
2022-10-24T01:02:47.620Z,3.38
2022-10-24T01:05:15.331Z,3.00
2022-10-24T01:08:28.458Z,2.10
2022-10-24T01:13:54.136Z,3.50
2022-10-24T01:16:44.360Z,3.10
2022-10-24T01:19:38.755Z,3.45
2022-10-24T01:22:12.434Z,3.33
2022-10-24T01:25:02.073Z,3.42
2022-10-24T01:27:52.649Z,2.88
2022-10-24T01:30:20.157Z,3.83
2022-10-24T01:33:04.390Z,3.55
2022-10-24T01:35:36.405Z,4.18
2022-10-24T01:40:59.149Z,4.03
2022-10-24T01:43:30.302Z,3.65
2022-10-24T01:46:02.004Z,3.92
2022-10-24T01:48:32.115Z,4.15
2022-10-24T01:51:01.887Z,4.25
2022-10-24T01:53:29.970Z,3.78
2022-10-24T01:55:57.314Z,3.85
2022-10-24T01:58:24.640Z,3.17
2022-10-24T02:00:55.018Z,4.05
2022-10-24T02:03:27.774Z,4.43
2022-10-24T02:05:59.441Z,2.83
2022-10-24T02:08:31.880Z,3.88
2022-10-24T02:11:02.249Z,3.58
2022-10-24T02:13:59.044Z,2.70
2022-10-24T02:16:26.098Z,3.20
2022-10-24T02:18:56.248Z,3.67
2022-10-24T02:21:38.134Z,4.47
2022-10-24T02:24:18.395Z,4.55
2022-10-24T02:27:09.171Z,3.30
2022-10-24T02:29:59.384Z,3.53
2022-10-24T02:32:30.456Z,4.38
2022-10-24T02:34:59.062Z,2.70
2022-10-24T02:37:28.928Z,3.38
2022-10-24T02:39:57.271Z,4.05
2022-10-24T02:42:26.420Z,4.97
2022-10-24T02:44:53.479Z,3.53
2022-10-24T02:47:22.357Z,3.83
2022-10-24T02:49:49.266Z,4.07
2022-10-24T02:52:16.328Z,3.60
2022-10-24T02:54:42.902Z,3.75
2022-10-24T02:57:09.699Z,5.10
2022-10-24T02:59:36.375Z,5.93
2022-10-24T03:02:02.958Z,4.05
2022-10-24T03:04:29.536Z,4.80
2022-10-24T03:06:56.201Z,3.30
2022-10-24T03:09:22.772Z,3.78
2022-10-24T03:11:49.835Z,4.20
2022-10-24T03:14:16.523Z,4.25
2022-10-24T03:16:43.148Z,4.75
2022-10-24T03:19:09.732Z,5.10
2022-10-24T03:21:36.735Z,3.08
2022-10-24T03:24:03.965Z,3.83
2022-10-24T03:26:30.565Z,4.35
2022-10-24T03:28:57.122Z,5.45
2022-10-24T03:31:23.725Z,3.88
2022-10-24T03:33:50.369Z,5.50
2022-10-24T03:36:17.095Z,4.43
2022-10-24T03:38:43.685Z,4.40
2022-10-24T03:41:10.487Z,4.35
2022-10-24T03:43:37.092Z,4.75
2022-10-24T03:46:03.762Z,2.70
2022-10-24T03:48:30.429Z,3.75
2022-10-24T03:50:57.020Z,5.45
2022-10-24T03:53:23.742Z,4.85
2022-10-24T03:55:50.766Z,3.42
2022-10-24T03:58:17.362Z,3.58
2022-10-24T04:00:43.976Z,3.67
2022-10-24T04:03:10.900Z,4.13
2022-10-24T04:08:09.527Z,4.95
2022-10-24T04:10:36.225Z,4.07
2022-10-24T04:13:02.928Z,4.30
2022-10-24T04:15:29.590Z,5.57
2022-10-24T04:17:56.230Z,3.92
2022-10-24T04:20:23.281Z,5.55
2022-10-24T04:22:49.848Z,5.20
2022-10-24T04:25:17.310Z,3.72
2022-10-24T04:27:45.368Z,6.75
2022-10-24T04:30:16.598Z,5.20
2022-10-24T04:32:44.273Z,6.05
2022-10-24T04:35:11.634Z,4.50
2022-10-24T04:37:38.290Z,5.18
2022-10-24T04:40:05.570Z,4.70
2022-10-24T04:42:32.213Z,4.55
2022-10-24T04:44:58.801Z,4.97
2022-10-24T04:47:25.447Z,6.40
2022-10-24T04:49:52.062Z,6.45
2022-10-24T04:52:18.605Z,4.60
2022-10-24T04:54:45.159Z,4.57
2022-10-24T04:57:11.770Z,3.88
2022-10-24T04:59:38.490Z,4.63
2022-10-24T05:02:05.183Z,5.38
2022-10-24T05:04:31.885Z,5.47
2022-10-24T05:06:58.548Z,5.03
2022-10-24T05:09:25.397Z,6.28
2022-10-24T05:11:55.013Z,4.45
2022-10-24T05:14:21.799Z,5.47
2022-10-24T05:16:49.249Z,4.82
2022-10-24T05:19:17.200Z,5.07
2022-10-24T05:21:43.873Z,5.15
2022-10-24T05:24:10.454Z,4.70
2022-10-24T05:26:37.146Z,4.38
2022-10-24T05:29:04.192Z,4.90
2022-10-24T05:33:58.349Z,3.97
2022-10-24T05:36:25.180Z,5.13
2022-10-24T05:38:51.862Z,5.75
2022-10-24T05:41:18.420Z,4.18
2022-10-24T05:43:45.044Z,5.05
2022-10-24T05:46:11.609Z,6.30
2022-10-24T05:48:38.631Z,5.43
2022-10-24T05:51:05.376Z,5.68
2022-10-24T05:53:31.925Z,4.65
2022-10-24T06:01:41.197Z,4.82
2022-10-24T06:04:11.321Z,5.53
2022-10-24T06:14:16.799Z,5.32
2022-10-24T06:16:43.511Z,3.83
2022-10-24T06:19:10.251Z,5.07
2022-10-24T06:21:36.864Z,5.35
2022-10-24T06:24:03.660Z,6.60
2022-10-24T06:26:30.275Z,4.72
2022-10-24T06:28:56.898Z,5.10
2022-10-24T06:31:25.590Z,4.95
2022-10-24T06:33:54.084Z,7.28
2022-10-24T06:36:20.781Z,6.45
2022-10-24T06:38:47.455Z,5.35
2022-10-24T06:41:14.905Z,4.63
2022-10-24T06:43:42.384Z,7.43
2022-10-24T06:46:11.646Z,5.97
2022-10-24T06:48:38.422Z,5.68
2022-10-24T06:51:05.658Z,6.93
2022-10-24T06:53:32.670Z,5.07
2022-10-24T06:56:04.656Z,6.03
2022-10-24T06:58:36.160Z,4.25
2022-10-24T07:01:11.505Z,3.73
2022-10-24T07:03:38.712Z,5.03
2022-10-24T07:06:27.096Z,4.78
2022-10-24T07:08:56.165Z,4.80
2022-10-24T07:11:23.413Z,5.53
2022-10-24T07:13:50.241Z,5.80
2022-10-24T07:16:17.641Z,6.57
2022-10-24T07:18:45.339Z,4.13
2022-10-24T07:21:15.543Z,4.45
2022-10-24T07:23:42.589Z,5.95
2022-10-24T07:26:15.675Z,4.72
2022-10-24T07:28:45.908Z,4.32
2022-10-24T07:31:24.801Z,4.70
2022-10-24T07:33:52.883Z,5.45
2022-10-24T07:36:22.021Z,4.43
2022-10-24T07:38:49.877Z,5.30
2022-10-24T07:41:17.000Z,4.15
2022-10-24T07:43:43.684Z,3.63
2022-10-24T07:46:13.214Z,4.32
2022-10-24T07:48:42.269Z,3.42
2022-10-24T07:51:10.981Z,5.03
2022-10-24T07:53:38.109Z,3.40
2022-10-24T07:56:09.288Z,4.25
2022-10-24T07:58:36.915Z,4.63
2022-10-24T08:01:12.859Z,3.55
2022-10-24T08:03:39.905Z,3.28
2022-10-24T08:06:13.270Z,5.57
2022-10-24T08:08:40.647Z,4.15
2022-10-24T08:11:14.110Z,3.78
2022-10-24T08:13:41.027Z,3.08
2022-10-24T08:16:09.423Z,4.13
2022-10-24T08:18:39.642Z,4.28
2022-10-24T08:21:09.050Z,4.13
2022-10-24T08:23:37.815Z,4.03
2022-10-24T08:26:06.223Z,3.22
2022-10-24T08:28:32.873Z,2.83
2022-10-24T08:31:02.148Z,4.57
2022-10-24T08:33:29.453Z,3.42
2022-10-24T08:35:59.814Z,3.50
2022-10-24T08:38:27.999Z,2.72
2022-10-24T08:40:55.274Z,4.63
2022-10-24T08:43:23.229Z,3.92
2022-10-24T08:46:07.989Z,5.45
2022-10-24T08:48:49.800Z,2.55
2022-10-24T08:51:43.270Z,3.90
2022-10-24T08:54:23.835Z,4.28
2022-10-24T08:56:54.399Z,3.10
2022-10-24T08:59:21.245Z,4.47
2022-10-24T09:01:52.949Z,2.75
2022-10-24T09:04:23.073Z,3.35
2022-10-24T09:06:53.015Z,2.88
2022-10-24T09:09:32.179Z,3.58
2022-10-24T09:12:26.219Z,3.38
2022-10-24T09:14:59.124Z,2.75
2022-10-24T09:17:34.836Z,2.60
2022-10-24T09:20:14.057Z,2.30
2022-10-24T09:22:43.547Z,2.72
2022-10-24T09:25:16.044Z,3.28
2022-10-24T09:27:44.008Z,2.95
2022-10-24T09:30:20.430Z,3.25
2022-10-24T09:32:47.809Z,3.05
2022-10-24T09:35:24.283Z,3.38
2022-10-24T09:37:57.848Z,2.08
2022-10-24T09:40:31.457Z,2.80
2022-10-24T09:43:35.754Z,2.65
2022-10-24T09:46:12.294Z,2.47
2022-10-24T09:48:48.201Z,3.15
2022-10-24T09:51:33.256Z,2.90
2022-10-24T09:54:06.972Z,3.97
2022-10-24T09:56:35.202Z,3.50
2022-10-24T09:59:38.872Z,2.72
2022-10-24T10:02:24.299Z,3.95
2022-10-24T10:05:17.755Z,3.75
2022-10-24T10:07:48.463Z,2.38
2022-10-24T10:10:29.252Z,1.80
2022-10-24T10:13:16.067Z,4.00
2022-10-24T10:56:46.618Z,2.60
2022-10-24T10:59:28.570Z,2.22
2022-10-24T11:02:14.020Z,2.13
2022-10-24T11:07:50.983Z,1.65
2022-10-24T11:10:22.611Z,2.15
2022-10-24T11:12:49.711Z,2.03
2022-10-24T11:15:31.303Z,2.22
2022-10-24T11:18:30.463Z,1.43
2022-10-24T11:21:05.239Z,2.50
2022-10-24T11:23:53.335Z,1.98
2022-10-24T11:26:32.877Z,1.83
2022-10-24T11:29:31.135Z,1.77
2022-10-24T11:32:18.667Z,2.22
2022-10-24T11:34:55.877Z,1.95
2022-10-24T11:37:45.261Z,3.05
2022-10-24T11:40:15.068Z,1.55
2022-10-24T11:43:00.670Z,2.55
2022-10-24T11:45:39.009Z,2.53
2022-10-24T11:48:27.682Z,2.38
2022-10-24T11:51:00.774Z,1.25
2022-10-24T11:53:33.108Z,2.13
2022-10-24T11:58:34.090Z,2.10
2022-10-24T12:01:06.739Z,1.88
2022-10-24T12:03:48.394Z,1.88
2022-10-24T12:06:47.032Z,1.80
2022-10-24T12:09:16.382Z,2.50
2022-10-24T12:12:01.859Z,1.80
2022-10-24T12:14:34.289Z,2.05
2022-10-24T12:17:28.813Z,1.50
2022-10-24T12:19:55.791Z,2.03
2022-10-24T12:29:07.190Z,1.40
2022-10-24T12:37:01.902Z,1.70
2022-10-24T12:39:33.753Z,1.60
2022-10-24T12:42:00.596Z,2.20
2022-10-24T12:44:33.064Z,1.38
2022-10-24T12:47:01.331Z,1.10
2022-10-24T12:49:32.475Z,1.85
2022-10-24T12:52:19.881Z,1.60
2022-10-24T12:54:46.466Z,1.95
2022-10-24T12:57:13.004Z,2.08
2022-10-24T12:59:48.539Z,2.35
2022-10-24T13:02:21.222Z,1.52
2022-10-24T13:05:07.490Z,1.08
2022-10-24T13:08:01.378Z,2.88
2022-10-24T13:11:06.146Z,2.08
2022-10-24T13:59:34.976Z,2.80
2022-10-24T14:02:06.277Z,1.98
2022-10-24T14:04:35.452Z,2.25
2022-10-24T14:07:07.413Z,2.03
2022-10-24T14:09:44.149Z,2.38
2022-10-24T14:12:22.778Z,2.10
2022-10-24T14:14:51.618Z,1.48
2022-10-24T14:17:23.879Z,1.60
2022-10-24T14:19:55.455Z,2.88
2022-10-24T14:22:45.010Z,3.30
2022-10-24T14:25:36.109Z,2.83
2022-10-24T14:28:17.106Z,1.75
2022-10-24T14:30:56.941Z,1.58
2022-10-24T14:33:26.381Z,1.58
2022-10-24T14:35:57.031Z,2.45
2022-10-24T14:38:27.066Z,1.27
2022-10-24T14:41:06.660Z,2.20
2022-10-24T14:43:37.317Z,2.03
2022-10-24T14:46:12.840Z,2.05
2022-10-24T14:49:21.270Z,1.95
2022-10-24T14:51:50.930Z,2.45
2022-10-24T14:54:24.228Z,2.17
2022-10-24T14:56:53.637Z,1.58
2022-10-24T14:59:29.875Z,2.88
2022-10-24T15:02:04.435Z,2.35
2022-10-24T15:04:40.030Z,2.13
2022-10-24T15:07:25.461Z,1.85
2022-10-24T15:09:59.502Z,2.03
2022-10-24T15:12:37.842Z,1.90
2022-10-24T15:15:22.807Z,1.75
2022-10-24T15:17:59.007Z,1.98
2022-10-24T15:20:28.440Z,1.25
2022-10-24T15:23:00.163Z,2.28
2022-10-24T15:25:42.060Z,2.63
2022-10-24T15:28:36.752Z,2.90
2022-10-24T15:31:03.705Z,2.05
2022-10-24T15:33:30.342Z,2.90
2022-10-24T15:35:58.055Z,2.45
2022-10-24T15:38:24.649Z,1.98
2022-10-24T15:40:51.799Z,2.10
2022-10-24T15:43:19.459Z,2.88
2022-10-24T15:45:46.599Z,2.03
2022-10-24T15:48:13.173Z,2.22
2022-10-24T15:50:44.721Z,1.58
2022-10-24T15:53:17.272Z,1.90
2022-10-24T15:55:43.956Z,1.55
2022-10-24T15:58:12.617Z,1.20
2022-10-24T16:00:39.558Z,2.65
2022-10-24T16:03:11.532Z,2.03
2022-10-24T16:05:43.138Z,1.80
2022-10-24T16:08:14.509Z,2.75
2022-10-24T16:10:42.413Z,2.07
2022-10-24T16:13:13.094Z,2.42
2022-10-24T16:15:40.581Z,2.05
2022-10-24T16:18:07.942Z,2.40
2022-10-24T16:20:35.329Z,2.53
2022-10-24T16:23:02.716Z,3.00
2022-10-24T16:25:32.987Z,2.80
2022-10-24T16:28:00.279Z,2.75
2022-10-24T16:30:29.550Z,3.10
2022-10-24T16:32:56.341Z,2.08
2022-10-24T16:35:25.934Z,2.35
2022-10-24T16:37:53.832Z,1.90
2022-10-24T16:40:21.385Z,2.47
2022-10-24T16:42:51.785Z,2.03
2022-10-24T16:45:19.075Z,1.95
2022-10-24T16:47:45.934Z,2.33
2022-10-24T16:50:15.378Z,0.98
2022-10-24T16:52:42.399Z,2.53
2022-10-24T16:55:11.562Z,3.17
2022-10-24T16:57:41.017Z,1.95
2022-10-24T17:00:09.358Z,1.63
2022-10-24T17:02:35.974Z,2.08
2022-10-24T17:05:02.594Z,1.88
2022-10-24T17:07:29.222Z,1.45
2022-10-24T17:09:55.865Z,1.83
2022-10-24T17:12:22.597Z,2.72
2022-10-24T17:14:49.219Z,3.03
2022-10-24T17:17:15.804Z,2.33
2022-10-24T17:19:44.255Z,2.35
2022-10-24T17:22:11.473Z,2.47
2022-10-24T17:24:38.176Z,1.80
2022-10-24T17:29:55.910Z,1.63
2022-10-24T17:35:16.101Z,2.42
2022-10-24T17:38:01.295Z,2.10
2022-10-24T17:40:40.478Z,2.88
2022-10-24T17:43:18.835Z,1.85
2022-10-24T17:45:45.930Z,1.90
2022-10-24T17:48:12.826Z,2.58
2022-10-24T17:50:39.536Z,2.75
2022-10-24T17:53:11.504Z,2.05
2022-10-24T17:55:46.290Z,2.30
2022-10-24T18:06:46.855Z,2.42
2022-10-24T18:09:13.451Z,3.53
2022-10-24T18:11:40.208Z,3.42
2022-10-24T18:14:07.081Z,1.88
2022-10-24T18:16:33.725Z,1.45
2022-10-24T18:19:00.378Z,2.20
2022-10-24T18:21:28.290Z,2.80
2022-10-24T18:23:55.833Z,1.52
2022-10-24T18:26:25.302Z,1.83
2022-10-24T18:28:54.549Z,2.40
2022-10-24T18:31:25.318Z,1.70
2022-10-24T18:33:52.707Z,2.55
2022-10-24T18:36:24.363Z,2.35
2022-10-24T18:38:53.449Z,2.00
2022-10-24T18:41:27.065Z,1.75
2022-10-24T18:43:55.429Z,1.63
2022-10-24T18:46:22.859Z,1.90
2022-10-24T18:48:50.078Z,1.73
2022-10-24T18:51:30.506Z,2.00
2022-10-24T18:54:03.315Z,2.40
2022-10-24T18:56:30.045Z,1.77
2022-10-24T18:58:57.714Z,2.50
2022-10-24T19:02:01.320Z,2.30
2022-10-24T19:04:28.248Z,1.80
2022-10-24T19:06:58.756Z,1.70
2022-10-24T19:09:26.437Z,2.55
2022-10-24T19:11:53.183Z,2.65
2022-10-24T19:14:20.935Z,3.70
2022-10-24T19:16:50.320Z,1.50
2022-10-24T19:19:28.992Z,1.90
2022-10-24T19:21:56.149Z,2.38
2022-10-24T19:24:22.863Z,3.45
2022-10-24T19:26:49.916Z,3.40
2022-10-24T19:29:16.970Z,2.53
2022-10-24T19:31:43.598Z,1.45
2022-10-24T19:34:10.813Z,2.88
2022-10-24T19:36:38.715Z,2.35
2022-10-24T19:39:06.425Z,3.03
2022-10-24T19:41:33.276Z,2.15
2022-10-24T19:43:59.868Z,2.35
2022-10-24T19:46:26.519Z,3.47
2022-10-24T19:48:53.179Z,3.60
2022-10-24T19:51:20.734Z,2.90
2022-10-24T19:53:49.434Z,2.10
2022-10-24T19:56:24.075Z,2.50
2022-10-24T19:58:52.185Z,7.15
2022-10-24T20:01:21.902Z,6.18
2022-10-24T20:03:49.884Z,3.97
2022-10-24T20:06:17.346Z,3.97
2022-10-24T20:08:46.246Z,2.53
2022-10-24T20:11:13.842Z,2.38
2022-10-24T20:13:40.477Z,2.95
2022-10-24T20:16:08.119Z,1.63
2022-10-24T20:18:36.550Z,3.03
2022-10-24T20:21:05.881Z,2.35
2022-10-24T20:23:33.333Z,2.88
2022-10-24T20:26:06.217Z,2.92
2022-10-24T20:28:38.578Z,1.92
2022-10-24T20:33:32.912Z,2.30
2022-10-24T20:36:01.114Z,3.28
2022-10-24T20:38:28.439Z,2.63
2022-10-24T20:40:59.921Z,4.05
2022-10-24T20:43:26.467Z,1.77
2022-10-24T20:45:53.146Z,3.10
2022-10-24T20:48:19.719Z,2.47
2022-10-24T20:50:46.825Z,3.22
2022-10-24T20:53:15.471Z,2.08
2022-10-24T20:55:44.823Z,3.97
2022-10-24T20:58:13.364Z,3.00
2022-10-24T21:03:14.221Z,2.95
2022-10-24T21:05:40.905Z,2.83
2022-10-24T21:08:08.088Z,3.45
2022-10-24T21:10:34.688Z,2.60
2022-10-24T21:13:01.288Z,2.33
2022-10-24T21:15:27.867Z,3.10
2022-10-24T21:17:54.602Z,2.55
2022-10-24T21:20:21.326Z,2.50
2022-10-24T21:22:47.923Z,4.22
2022-10-24T21:25:14.606Z,3.40
2022-10-24T21:27:41.176Z,2.47
2022-10-24T21:30:12.128Z,2.55
2022-10-24T21:32:40.933Z,3.60
2022-10-24T21:35:07.805Z,4.22
2022-10-24T21:37:34.605Z,3.35
2022-10-24T21:40:01.343Z,3.35
2022-10-24T21:42:30.233Z,2.78
2022-10-24T21:44:56.969Z,2.92
2022-10-24T21:47:23.602Z,4.30
2022-10-24T21:49:50.204Z,2.83
2022-10-24T21:52:16.880Z,4.18
2022-10-24T21:54:43.473Z,2.58
2022-10-24T21:57:10.041Z,3.40
2022-10-24T21:59:36.678Z,2.53
2022-10-24T22:02:03.468Z,2.90
2022-10-24T22:04:30.306Z,2.53
2022-10-24T22:06:56.891Z,2.67
2022-10-24T22:09:23.798Z,2.13
2022-10-24T22:11:51.117Z,2.25
2022-10-24T22:14:18.226Z,2.92
2022-10-24T22:16:45.171Z,3.53
2022-10-24T22:19:13.033Z,2.53
2022-10-24T22:21:45.289Z,2.85
2022-10-24T22:24:15.246Z,2.88
2022-10-24T22:26:42.438Z,1.65
2022-10-24T22:29:11.314Z,2.08
2022-10-24T22:31:38.419Z,2.65
2022-10-24T22:34:05.602Z,2.20
2022-10-24T22:37:06.954Z,1.63
2022-10-24T22:39:33.926Z,2.47
2022-10-24T22:42:00.780Z,1.90
2022-10-24T22:44:27.558Z,2.15
2022-10-24T22:47:06.189Z,1.90
2022-10-24T22:49:43.502Z,2.45
2022-10-24T22:52:11.416Z,2.17
2022-10-24T22:54:38.786Z,1.92
2022-10-24T22:57:06.449Z,2.28
2022-10-24T22:59:33.577Z,2.83
2022-10-24T23:02:03.218Z,2.13
2022-10-24T23:04:41.791Z,1.48
2022-10-24T23:07:25.063Z,2.10
2022-10-24T23:09:54.017Z,2.13
2022-10-24T23:12:21.984Z,2.25
2022-10-24T23:14:49.851Z,1.75
2022-10-24T23:17:27.318Z,1.27
2022-10-24T23:19:55.386Z,1.50
2022-10-24T23:22:28.249Z,2.05
2022-10-24T23:24:57.310Z,2.08
2022-10-24T23:27:34.166Z,1.95
2022-10-24T23:30:03.046Z,2.53
2022-10-24T23:32:32.132Z,2.05
2022-10-24T23:35:00.124Z,1.52
2022-10-24T23:37:34.778Z,2.05
2022-10-24T23:40:17.811Z,3.15
2022-10-24T23:42:45.791Z,2.45
2022-10-24T23:45:18.206Z,2.17
2022-10-24T23:48:18.217Z,2.20
2022-10-24T23:51:14.104Z,2.47
2022-10-24T23:53:49.837Z,2.95
2022-10-24T23:56:18.399Z,1.48
2022-10-24T23:58:45.416Z,1.95
